Terminal Aerodrome Forecast
Issued by NWS

Home | Current Version | Previous Version | Text Only | Print | Product List | Glossary On
Versions: 1 2 3 4 5 6 7 8 9 10 11 12 13 14 15 16 17 18 19 20 21 22 23 24 25 26 27 28 29 30 31 32 33 34 35 36 37 38 39 40 41 42 43 44 45
000
FTUS45 KBOU 280536
TAFBJC
TAF
KBJC 280536Z 2806/2906 10006KT P6SM SCT050 BKN080
     FM281000 33011KT P6SM FEW008 SCT060 BKN200
      TEMPO 2812/2815 5SM BR BKN008
     FM281700 36007KT P6SM SCT020 BKN040
     FM282100 32008KT P6SM SCT060 BKN100 PROB30 2822/2903 VRB20G30KT
      -TSRA BKN050CB
     FM290300 25006KT P6SM SCT060 BKN100=

USA.gov is the U.S. government's official web portal to all federal, state and local government web resources and services.